Flight Track Log - Related Links

Times and Time Zones

All times are in EDT time to prevent confusion due to time zone crossing. See the SWA1154 flight status page for this flight to view local times or setup timezone preferences in your user account.

Time Position Orientation Groundspeed Altitude Reporting Facility
EDT Latitude Longitude Course Direction KTS MPH feet Rate Location/Type
Tue 10:21:52 AM 41.8000 -87.8000 191° South 188 216 2,800  Level Chicago TRACON
Tue 10:24:18 AM 41.6236 -87.8444 186° South 263 303 7,500 2,272 Climbing Chicago Center
Tue 10:25:18 AM 41.5464 -87.8544 184° South 278 320 10,600 2,300 Climbing Chicago Center
Tue 10:26:18 AM 41.4611 -87.8619 157° South 291 335 12,100 2,100 Climbing Chicago Center
Tue 10:27:18 AM 41.3686 -87.8089 162° South 348 400 14,800 1,900 Climbing Chicago Center
Tue 10:28:18 AM 41.2658 -87.7642 171° South 362 417 15,900 700 Climbing Chicago Center
Tue 10:29:18 AM 41.1614 -87.7419 171° South 378 435 16,200 1,700 Climbing Chicago Center
Tue 10:30:18 AM 41.0569 -87.7197 170° South 383 441 19,300 2,850 Climbing Chicago Center
Tue 10:31:18 AM 40.9461 -87.6950 169° South 393 452 21,900 2,550 Climbing Chicago Center
Tue 10:32:18 AM 40.8350 -87.6678 170° South 403 464 24,400 2,200 Climbing Chicago Center
Tue 10:33:18 AM 40.7158 -87.6406 170° South 415 478 26,300 1,800 Climbing Chicago Center
Tue 10:34:18 AM 40.5944 -87.6136 171° South 435 501 28,000 1,850 Climbing Chicago Center
Tue 10:35:18 AM 40.4692 -87.5869 176° South 448 516 30,000 2,050 Climbing Chicago Center
Tue 10:36:18 AM 40.3375 -87.5739 181° South 458 527 32,100 1,950 Climbing Chicago Center
Tue 10:37:18 AM 40.2125 -87.5772 172° South 458 527 33,900 1,669 Climbing Chicago Center
Tue 10:38:31 AM 40.0733 -87.5506 170° South 468 539 35,800 1,398 Climbing Indianapolis Center
Tue 10:39:31 AM 39.9469 -87.5217 170° South 463 533 37,000 600 Climbing Indianapolis Center
Tue 10:40:31 AM 39.8478 -87.5000 170° South 456 525 37,000 300 Level Indianapolis Center
Tue 10:41:31 AM 39.6986 -87.4672 169° South 456 525 37,600 850 Climbing Indianapolis Center
Tue 10:42:31 AM 39.5808 -87.4364 170° South 450 518 38,700 700 Climbing Indianapolis Center
Tue 10:43:31 AM 39.4544 -87.4081 170° South 445 512 39,000 150 Climbing Indianapolis Center
Tue 10:44:31 AM 39.3325 -87.3800 170° South 445 512 39,000  Level Indianapolis Center
Tue 10:45:31 AM 39.2103 -87.3519 170° South 445 512 39,000  Level Indianapolis Center
Tue 10:46:31 AM 39.0922 -87.3242 170° South 442 509 39,000  Level Indianapolis Center
Tue 10:47:31 AM 38.9681 -87.2964 170° South 442 509 39,000  Level Indianapolis Center
Tue 10:48:31 AM 38.8417 -87.2686 170° South 454 522 39,000  Level Indianapolis Center
Tue 10:49:31 AM 38.7194 -87.2408 170° South 454 522 39,000  Level Indianapolis Center
Tue 10:50:31 AM 38.5994 -87.2136 170° South 454 522 39,000  Level Indianapolis Center
Tue 10:51:31 AM 38.4750 -87.1861 168° South 454 522 39,000  Level Indianapolis Center
Tue 10:52:31 AM 38.3303 -87.1472 172° South 462 532 39,000  Level Indianapolis Center
Tue 10:53:31 AM 38.2119 -87.1256 171° South 462 532 39,000  Level Indianapolis Center
Tue 10:54:31 AM 38.1042 -87.1044 170° South 451 519 39,000  Level Indianapolis Center
Tue 10:55:31 AM 37.9819 -87.0775 170° South 445 512 39,000  Level Indianapolis Center
Tue 10:57:46 AM 37.6950 -87.0158 171° South 449 517 39,000  Level Memphis Center
Tue 10:58:46 AM 37.5883 -86.9942 170° South 444 511 39,000  Level Memphis Center
Tue 10:59:46 AM 37.4689 -86.9681 169° South 444 511 39,000  Level Memphis Center
Tue 11:00:58 AM 37.3472 -86.9392 171° South 444 511 39,000  Level Memphis Center
Tue 11:01:58 AM 37.2069 -86.9114 163° South 439 505 39,000  Level Memphis Center
Tue 11:02:58 AM 37.0911 -86.8669 161° South 432 497 39,000  Level Memphis Center
Tue 11:03:58 AM 36.9772 -86.8175 162° South 442 509 39,000  Level Memphis Center
Tue 11:04:58 AM 36.8592 -86.7683 162° South 448 516 39,000  Level Memphis Center
Tue 11:05:58 AM 36.7431 -86.7217 161° South 448 516 39,000  Level Memphis Center
Tue 11:06:58 AM 36.6164 -86.6678 161° South 448 516 39,000  Level Memphis Center
Tue 11:07:58 AM 36.4983 -86.6164 162° South 443 510 39,000  Level Memphis Center
Tue 11:08:58 AM 36.3822 -86.5703 163° South 449 517 39,000  Level Memphis Center
Tue 11:09:58 AM 36.2639 -86.5244 162° South 449 517 39,000  Level Memphis Center
Tue 11:10:58 AM 36.1458 -86.4783 162° South 449 517 39,000  Level Memphis Center
Tue 11:11:58 AM 36.0425 -86.4372 161° South 449 517 39,000  Level Memphis Center
Tue 11:12:58 AM 35.9261 -86.3889 162° South 449 517 39,000  Level Memphis Center
Tue 11:15:07 AM 35.6686 -86.2856 163° South 437 503 39,000  Level Atlanta Center
Tue 11:16:07 AM 35.5547 -86.2417 163° South 437 503 39,000  Level Atlanta Center
Tue 11:17:07 AM 35.4406 -86.1978 161° South 437 503 39,000  Level Atlanta Center
Tue 11:18:07 AM 35.3247 -86.1489 162° South 437 503 39,000  Level Atlanta Center
Tue 11:19:07 AM 35.2106 -86.1028 164° South 432 497 39,000  Level Atlanta Center
Tue 11:20:07 AM 35.0967 -86.0619 162° South 432 497 39,000  Level Atlanta Center
Tue 11:21:07 AM 34.9806 -86.0161 163° South 437 503 39,000  Level Atlanta Center
Tue 11:22:07 AM 34.8644 -85.9728 162° South 437 503 39,000  Level Atlanta Center
Tue 11:23:07 AM 34.7522 -85.9272 163° South 437 503 39,000  Level Atlanta Center
Tue 11:24:07 AM 34.6383 -85.8842 161° South 437 503 39,000  Level Atlanta Center
Tue 11:25:07 AM 34.5219 -85.8364 163° South 437 503 39,000  Level Atlanta Center
Tue 11:26:07 AM 34.4100 -85.7961 162° South 437 503 39,000  Level Atlanta Center
Tue 11:27:07 AM 34.3083 -85.7564 163° South 431 496 39,000  Level Atlanta Center
Tue 11:28:07 AM 34.1919 -85.7139 161° South 431 496 39,000  Level Atlanta Center
Tue 11:29:07 AM 34.0819 -85.6692 162° South 431 496 39,000  Level Atlanta Center
Tue 11:30:07 AM 33.9678 -85.6242 163° South 431 496 39,000  Level Atlanta Center
Tue 11:31:07 AM 33.8514 -85.5822 163° South 436 502 39,000  Level Atlanta Center
Tue 11:32:07 AM 33.7392 -85.5403 163° South 431 496 39,000  Level Atlanta Center
Tue 11:33:07 AM 33.6208 -85.4981 162° South 436 502 39,000  Level Atlanta Center
Tue 11:34:07 AM 33.5064 -85.4539 162° South 429 494 39,000  Level Atlanta Center
Tue 11:35:07 AM 33.3922 -85.4097 163° South 429 494 39,000  Level Atlanta Center
Tue 11:36:07 AM 33.2694 -85.3656 162° South 437 503 39,000  Level Atlanta Center
Tue 11:37:07 AM 33.1550 -85.3217 160° South 432 497 39,000  Level Atlanta Center
Tue 11:38:20 AM 33.0222 -85.2653 162° South 437 503 39,000  Level Atlanta Center
Tue 11:39:19 AM 32.9056 -85.2214 163° South 431 496 39,000  Level Atlanta Center
Tue 11:40:20 AM 32.7933 -85.1806 162° South 431 496 39,000  Level Atlanta Center
Tue 11:41:19 AM 32.6894 -85.1397 163° South 431 496 39,000  Level Atlanta Center
Tue 11:42:19 AM 32.5792 -85.0989 163° South 439 505 39,000 -500 Level Atlanta Center
Tue 11:43:19 AM 32.4606 -85.0556 164° South 439 505 38,000 -1,450 Descending Atlanta Center
Tue 11:44:19 AM 32.3417 -85.0150 165° South 439 505 36,100 -1,950 Descending Atlanta Center
Tue 11:45:19 AM 32.2003 -84.9692 162° South 451 519 34,100 -1,900 Descending Atlanta Center
Tue 11:46:19 AM 32.0794 -84.9236 160° South 462 532 32,300 -1,617 Descending Atlanta Center
Tue 11:47:14 AM 31.9736 -84.8789 164° South 455 524 31,000 -678 Descending Jacksonville Center
Tue 11:48:14 AM 31.8697 -84.8447 163° South 449 517 31,000  Level Jacksonville Center
Tue 11:49:14 AM 31.7472 -84.8006 163° South 449 517 31,000 -100 Level Jacksonville Center
Tue 11:50:14 AM 31.6286 -84.7592 163° South 449 517 30,800 -850 Descending Jacksonville Center
Tue 11:51:14 AM 31.5083 -84.7153 162° South 449 517 29,300 -1,500 Descending Jacksonville Center
Tue 11:52:14 AM 31.3919 -84.6717 164° South 449 517 27,800 -1,150 Descending Jacksonville Center
Tue 11:53:14 AM 31.2778 -84.6331 163° South 438 504 27,000 -400 Descending Jacksonville Center
Tue 11:54:14 AM 31.1656 -84.5922 163° South 432 497 27,000  Level Jacksonville Center
Tue 11:55:14 AM 31.0533 -84.5514 162° South 432 497 27,000  Level Jacksonville Center
Tue 11:56:15 AM 30.9389 -84.5081 164° South 432 497 27,000  Level Jacksonville Center
Tue 11:57:14 AM 30.8247 -84.4700 163° South 432 497 27,000  Level Jacksonville Center
Tue 11:58:15 AM 30.7125 -84.4294 164° South 432 497 27,000  Level Jacksonville Center
Tue 11:59:14 AM 30.5981 -84.3914 154° Southeast 427 491 27,000  Level Jacksonville Center
Tue 12:00:14 PM 30.4797 -84.3244 150° Southeast 427 491 27,000  Level Jacksonville Center
Tue 12:01:14 PM 30.3783 -84.2578 150° Southeast 422 486 27,000  Level Jacksonville Center
Tue 12:02:15 PM 30.2744 -84.1889 151° Southeast 422 486 27,000  Level Jacksonville Center
Tue 12:03:15 PM 30.1708 -84.1228 151° Southeast 427 491 27,000  Level Jacksonville Center
Tue 12:04:15 PM 30.0692 -84.0567 151° Southeast 427 491 27,000  Level Jacksonville Center
Tue 12:05:15 PM 29.9653 -83.9906 151° Southeast 427 491 27,000  Level Jacksonville Center
Tue 12:06:15 PM 29.8636 -83.9247 150° Southeast 422 486 27,000  Level Jacksonville Center
Tue 12:07:14 PM 29.7597 -83.8567 150° Southeast 422 486 27,000  Level Jacksonville Center
Tue 12:08:15 PM 29.6558 -83.7889 152° Southeast 422 486 27,000  Level Jacksonville Center
Tue 12:09:15 PM 29.5539 -83.7258 151° Southeast 422 486 27,000  Level Jacksonville Center
Tue 12:10:15 PM 29.4519 -83.6606 150° Southeast 422 486 27,000  Level Jacksonville Center
Tue 12:11:15 PM 29.3481 -83.5931 151° Southeast 422 486 27,000  Level Jacksonville Center
Tue 12:12:15 PM 29.2461 -83.5281 150° Southeast 422 486 27,000  Level Jacksonville Center
Tue 12:13:15 PM 29.1442 -83.4608 151° Southeast 422 486 27,000  Level Jacksonville Center
Tue 12:14:15 PM 29.0422 -83.3961 152° Southeast 417 480 27,000  Level Jacksonville Center
Tue 12:15:14 PM 28.9381 -83.3339 162° South 417 480 27,000  Level Jacksonville Center
Tue 12:16:14 PM 28.8297 -83.2931 162° South 412 474 27,000  Level Jacksonville Center
Tue 12:18:02 PM 28.6328 -83.2217 163° South 409 471 27,000  Level Miami Center
Tue 12:19:02 PM 28.5181 -83.1822 162° South 416 479 27,000  Level Miami Center
Tue 12:20:02 PM 28.4092 -83.1431 162° South 421 484 27,000  Level Miami Center
Tue 12:21:02 PM 28.2983 -83.1014 162° South 421 484 27,000  Level Miami Center
Tue 12:22:02 PM 28.1875 -83.0600 162° South 416 479 27,000  Level Miami Center
Tue 12:23:02 PM 28.0808 -83.0211 159° South 411 473 27,000  Level Miami Center
Tue 12:24:02 PM 27.9722 -82.9731 158° South 417 480 27,000 -150 Level Miami Center
Tue 12:25:02 PM 27.8658 -82.9250 156° South 417 480 26,700 -700 Descending Miami Center
Tue 12:26:02 PM 27.7658 -82.8750 159° South 417 480 25,600 -1,050 Descending Miami Center
Tue 12:27:02 PM 27.6592 -82.8297 158° South 405 466 24,600 -950 Descending Miami Center
Tue 12:28:02 PM 27.5669 -82.7875 159° South 402 463 23,700 -950 Descending Miami Center
Tue 12:29:02 PM 27.4686 -82.7450 158° South 394 453 22,700 -1,050 Descending Miami Center
Tue 12:30:02 PM 27.3558 -82.6947 155° Southeast 388 447 21,600 -1,050 Descending Miami Center
Tue 12:31:02 PM 27.2619 -82.6456 147° Southeast 380 437 20,600 -1,150 Descending Miami Center
Tue 12:32:02 PM 27.1789 -82.5856 144° Southeast 385 443 19,300 -1,300 Descending Miami Center
Tue 12:33:02 PM 27.0958 -82.5183 146° Southeast 376 433 18,000 -1,550 Descending Miami Center
Tue 12:34:02 PM 27.0108 -82.4536 145° Southeast 376 433 16,200 -1,900 Descending Miami Center
Tue 12:35:02 PM 26.9297 -82.3892 145° Southeast 371 427 14,200 -1,900 Descending Miami Center
Tue 12:36:02 PM 26.8528 -82.3297 143° Southeast 360 414 12,400 -1,850 Descending Miami Center
Tue 12:37:02 PM 26.7758 -82.2658 146° Southeast 355 409 10,500 -1,400 Descending Miami Center
Tue 12:38:02 PM 26.7067 -82.2139 144° Southeast 333 383 9,600 -1,150 Descending Miami Center
Tue 12:39:02 PM 26.6397 -82.1597 144° Southeast 314 361 8,200 -1,400 Descending Miami Center
Tue 12:40:02 PM 26.5769 -82.1081 144° Southeast 295 339 6,800 -1,400 Descending Miami Center
Tue 12:41:02 PM 26.5142 -82.0567 137° Southeast 290 334 5,400 -600 Descending Miami Center
Tue 12:43:02 PM 26.4053 -81.9450 54° Northeast 273 314 5,000 -200 Descending Miami Center
Tue 12:50:32 PM 26.5333 -81.7500 302° West  Level FlightAware Approximate
Tue 12:51:32 PM 26.5927 -81.8583 121° Southeast  Level Estimated
Tue 12:52:32 PM 26.5333 -81.7500 302° West  Level FlightAware Approximate
Tue 12:53:32 PM 26.5927 -81.8583 121° Southeast  Level Estimated
Tue 12:54:32 PM 26.5333 -81.7500 302° West  Level FlightAware Approximate
Tue 12:55:32 PM 26.5927 -81.8583 121° Southeast  Level Estimated
Tue 12:56:32 PM 26.5333 -81.7500 302° West  Level FlightAware Approximate
Tue 12:57:32 PM 26.5927 -81.8583 302° West  Level Estimated

Login

Don't have an account? Register now (free) for customized features, flight alerts, and more!